Time;durP1;ratioP1;P1;durP2;ratioP2;P2;SDS_P1;SDS_P2;PMS_P1;PMS_P2;Temp;Humidity;BMP_temperature;BMP_pressure;BME280_temperature;BME280_humidity;BME280_pressure;Samples;Min_cycle;Max_cycle;Signal;HPM_P1;HPM_P2
2023/09/27 00:00:08;;;;;;;35.63;28.52;;;;;;;21.87;51.11;93913.84;6073629;23;20045;-92
2023/09/27 00:02:34;;;;;;;39.38;27.65;;;;;;;21.86;51.40;93908.88;6074990;23;20013;-91
2023/09/27 00:05:00;;;;;;;35.03;27.15;;;;;;;21.86;51.21;93917.13;6073761;23;20349;-93
2023/09/27 00:07:26;;;;;;;35.40;27.25;;;;;;;21.87;51.06;93913.84;6073190;23;20018;-93
2023/09/27 00:09:52;;;;;;;34.65;26.42;;;;;;;21.87;51.14;93918.59;6073645;23;20021;-92
2023/09/27 00:12:18;;;;;;;39.20;29.20;;;;;;;21.86;51.19;93917.88;6072487;23;20050;-92
2023/09/27 00:14:45;;;;;;;35.83;26.90;;;;;;;21.86;50.99;93914.38;6073771;23;20014;-92
2023/09/27 00:17:11;;;;;;;31.98;26.88;;;;;;;21.86;51.18;93917.13;6072459;23;20836;-93
2023/09/27 00:19:37;;;;;;;35.60;26.95;;;;;;;21.86;51.22;93908.88;6074599;23;20034;-92
2023/09/27 00:22:04;;;;;;;36.40;26.40;;;;;;;21.86;51.04;93915.13;6072722;23;20022;-92
2023/09/27 00:24:29;;;;;;;30.80;25.38;;;;;;;21.85;51.08;93910.88;6097444;23;20014;-94
2023/09/27 00:26:55;;;;;;;34.13;25.42;;;;;;;21.85;51.26;93915.66;6073923;23;20024;-93
2023/09/27 00:29:20;;;;;;;35.70;25.38;;;;;;;21.85;51.22;93910.16;6073455;23;20065;-92
2023/09/27 00:31:46;;;;;;;34.65;25.65;;;;;;;21.85;50.96;93907.38;6073623;23;20044;-93
2023/09/27 00:34:13;;;;;;;34.35;25.70;;;;;;;21.84;51.12;93905.91;6072585;23;20021;-94
2023/09/27 00:36:38;;;;;;;31.83;25.23;;;;;;;21.83;51.23;93902.41;6074825;23;20029;-93
2023/09/27 00:39:04;;;;;;;35.17;25.90;;;;;;;21.84;51.28;93908.66;6072416;23;20524;-92
2023/09/27 00:41:29;;;;;;;33.30;25.67;;;;;;;21.84;51.16;93908.66;6074605;23;20025;-93
2023/09/27 00:43:55;;;;;;;32.95;25.30;;;;;;;21.82;51.10;93905.69;6074205;23;20018;-92
2023/09/27 00:46:22;;;;;;;33.97;25.17;;;;;;;21.84;51.24;93909.41;6073646;23;20018;-92
2023/09/27 00:48:47;;;;;;;33.85;23.60;;;;;;;21.83;51.03;93899.66;6075709;23;20044;-93
2023/09/27 00:51:13;;;;;;;29.92;24.20;;;;;;;21.84;51.20;93898.38;6073791;23;20346;-92
2023/09/27 00:53:39;;;;;;;29.98;23.83;;;;;;;21.82;51.11;93897.41;6074471;23;20018;-92
2023/09/27 00:56:05;;;;;;;32.53;25.50;;;;;;;21.83;51.26;93890.66;6074068;23;20098;-91
2023/09/27 00:58:31;;;;;;;31.77;24.38;;;;;;;21.82;51.09;93892.66;6074849;23;20026;-93
2023/09/27 01:00:56;;;;;;;33.92;25.50;;;;;;;21.81;51.31;93893.19;6073890;23;20033;-93
2023/09/27 01:03:32;;;;;;;32.30;24.25;;;;;;;21.80;51.34;93884.19;6072961;23;20075;-94
2023/09/27 01:05:57;;;;;;;32.35;24.20;;;;;;;21.80;51.21;93884.19;6075065;23;20022;-91
2023/09/27 01:08:23;;;;;;;30.98;23.25;;;;;;;21.82;51.09;93889.16;6073172;23;20030;-93
2023/09/27 01:10:49;;;;;;;31.63;23.95;;;;;;;21.82;51.17;93881.66;6073460;23;20540;-93
2023/09/27 01:13:15;;;;;;;38.22;24.75;;;;;;;21.80;51.11;93884.19;6073353;23;20105;-93
2023/09/27 01:15:40;;;;;;;33.95;24.98;;;;;;;21.81;51.35;93884.91;6074558;23;20018;-93
2023/09/27 01:18:06;;;;;;;32.10;23.80;;;;;;;21.80;50.73;93870.41;6074054;23;20093;-92
2023/09/27 01:20:32;;;;;;;27.05;22.70;;;;;;;21.81;51.17;93877.41;6098809;23;20018;-94
2023/09/27 01:22:59;;;;;;;33.20;24.98;;;;;;;21.79;50.96;93885.44;6075905;23;20334;-93
2023/09/27 01:25:28;;;;;;;30.30;23.75;;;;;;;21.81;51.15;93877.41;6075303;23;20516;-92
2023/09/27 01:27:54;;;;;;;27.25;21.05;;;;;;;21.80;51.16;93886.94;6076143;23;20025;-93
2023/09/27 01:30:19;;;;;;;32.10;23.02;;;;;;;21.80;51.21;93881.44;6073585;23;20021;-93
2023/09/27 01:32:45;;;;;;;31.30;23.60;;;;;;;21.80;51.08;93886.19;6076578;23;20024;-94
2023/09/27 01:35:10;;;;;;;27.77;21.50;;;;;;;21.79;51.28;93890.19;6073915;23;20021;-93
2023/09/27 01:37:36;;;;;;;28.60;22.38;;;;;;;21.82;51.36;93875.41;6074185;23;20053;-92
2023/09/27 01:40:02;;;;;;;28.40;22.30;;;;;;;21.83;51.01;93879.66;6075707;23;20025;-91
2023/09/27 01:42:27;;;;;;;28.95;23.02;;;;;;;21.80;51.22;93881.44;6074151;23;20021;-95
2023/09/27 01:44:52;;;;;;;29.05;22.02;;;;;;;21.80;50.91;93875.19;6074412;23;20029;-94
2023/09/27 01:47:18;;;;;;;31.33;22.63;;;;;;;21.79;51.16;93871.69;6073315;23;20052;-94
2023/09/27 01:49:43;;;;;;;29.85;23.10;;;;;;;21.79;51.23;93870.94;6074209;23;20034;-93
2023/09/27 01:52:09;;;;;;;27.13;20.63;;;;;;;21.82;51.10;93878.16;6096670;23;20025;-93
2023/09/27 01:54:35;;;;;;;28.98;21.88;;;;;;;21.78;51.05;93875.69;6074828;23;20029;-92
2023/09/27 01:57:00;;;;;;;27.33;20.52;;;;;;;21.77;51.26;93873.47;6075277;23;20326;-92
2023/09/27 01:59:26;;;;;;;27.08;21.52;;;;;;;21.77;51.27;93862.47;6070551;23;20026;-92
2023/09/27 02:01:51;;;;;;;27.02;21.42;;;;;;;21.78;51.37;93875.69;6021130;23;20026;-93
2023/09/27 02:04:17;;;;;;;23.77;20.38;;;;;;;21.76;51.09;93875.47;6019162;23;20025;-93
2023/09/27 02:06:42;;;;;;;26.77;20.33;;;;;;;21.78;51.31;93872.94;6046413;23;20018;-92
2023/09/27 02:09:08;;;;;;;29.45;21.00;;;;;;;21.78;51.19;93872.94;6044736;23;20050;-92
2023/09/27 02:11:34;;;;;;;26.60;20.30;;;;;;;21.77;50.80;93874.22;6022545;23;20018;-92
2023/09/27 02:14:03;;;;;;;28.02;21.20;;;;;;;21.78;51.05;93870.19;6022298;23;20041;-92
2023/09/27 02:16:29;;;;;;;24.85;19.52;;;;;;;21.77;51.01;93874.22;6043835;23;20010;-91
2023/09/27 02:18:56;;;;;;;29.05;21.60;;;;;;;21.77;50.91;93867.97;6049268;23;20029;-92
2023/09/27 02:21:21;;;;;;;28.40;20.60;;;;;;;21.78;51.23;93866.69;6021554;23;20017;-92
2023/09/27 02:23:47;;;;;;;27.27;19.73;;;;;;;21.77;50.89;93863.19;6021717;23;20014;-92
2023/09/27 02:26:12;;;;;;;27.17;20.73;;;;;;;21.78;51.01;93866.69;6021381;23;20022;-93
2023/09/27 02:28:38;;;;;;;29.77;22.58;;;;;;;21.76;50.94;93871.97;6022167;23;20019;-92
2023/09/27 02:31:10;;;;;;;26.08;19.70;;;;;;;21.75;51.08;93870.50;6019632;23;20034;-93
2023/09/27 02:33:37;;;;;;;28.15;19.85;;;;;;;21.76;51.40;93864.47;6022719;23;20049;-92
2023/09/27 02:36:03;;;;;;;27.02;19.80;;;;;;;21.76;50.92;93869.97;6044681;23;20329;-92
2023/09/27 02:38:29;;;;;;;26.50;19.83;;;;;;;21.75;51.11;93873.25;6020808;23;20077;-92
2023/09/27 02:40:54;;;;;;;26.40;19.05;;;;;;;21.75;51.02;93873.25;6021862;23;20019;-92
2023/09/27 02:43:21;;;;;;;24.45;19.33;;;;;;;21.75;51.32;93873.97;6022921;23;20018;-93
2023/09/27 02:45:46;;;;;;;26.35;20.27;;;;;;;21.74;51.34;93875.25;6022509;23;20091;-92
2023/09/27 02:48:11;;;;;;;23.83;18.85;;;;;;;21.76;51.15;93872.72;6022247;23;20018;-93
2023/09/27 02:50:37;;;;;;;25.17;19.35;;;;;;;21.76;51.18;93871.97;5987984;23;20015;-91
2023/09/27 02:53:03;;;;;;;26.95;18.98;;;;;;;21.74;51.09;93861.50;6010380;23;20035;-93
2023/09/27 02:55:30;;;;;;;25.08;19.13;;;;;;;21.75;51.32;93867.75;6011753;23;20030;-94
2023/09/27 02:57:55;;;;;;;23.95;17.80;;;;;;;21.76;51.05;93860.97;5988751;23;20043;-92
2023/09/27 03:00:21;;;;;;;25.02;18.80;;;;;;;21.74;51.06;93863.50;6037580;23;20037;-92
2023/09/27 03:02:46;;;;;;;26.58;19.23;;;;;;;21.75;51.34;93862.97;6045371;23;20390;-91
2023/09/27 03:05:12;;;;;;;26.88;19.92;;;;;;;21.75;50.93;93865.72;6043215;23;20417;-93
2023/09/27 03:07:38;;;;;;;24.00;18.58;;;;;;;21.75;51.09;93864.97;6039951;23;20028;-94
2023/09/27 03:10:08;;;;;;;26.20;18.00;;;;;;;21.75;51.07;93862.97;6042437;23;20030;-94
2023/09/27 03:12:33;;;;;;;22.92;17.63;;;;;;;21.80;50.86;93864.16;6068635;23;20528;-93
2023/09/27 03:15:01;;;;;;;25.40;19.38;;;;;;;21.75;51.13;93865.72;6048293;23;20023;-91
2023/09/27 03:17:27;;;;;;;22.50;18.20;;;;;;;21.76;51.01;93858.97;6074882;23;20034;-92
2023/09/27 03:19:53;;;;;;;27.05;18.65;;;;;;;21.78;50.91;93861.19;6047384;23;20513;-92
2023/09/27 03:22:18;;;;;;;22.35;17.73;;;;;;;21.76;50.89;93858.97;6059446;23;20026;-93
2023/09/27 03:24:44;;;;;;;27.73;17.38;;;;;;;21.75;51.11;93857.47;6075732;23;20010;-93
2023/09/27 03:27:09;;;;;;;24.60;17.27;;;;;;;21.73;51.32;93862.00;6073025;23;20028;-93
2023/09/27 03:29:47;;;;;;;30.77;17.75;;;;;;;21.77;50.89;93854.94;6065700;23;20069;-92
2023/09/27 03:32:12;;;;;;;27.67;17.23;;;;;;;21.82;51.02;93859.63;6075165;23;20026;-91
2023/09/27 03:34:38;;;;;;;22.38;18.13;;;;;;;21.79;51.12;93855.16;6103221;23;20049;-93
2023/09/27 03:37:04;;;;;;;24.90;18.90;;;;;;;21.95;50.65;93860.94;6100543;23;20050;-92
2023/09/27 03:39:35;;;;;;;31.85;24.25;;;;;;;21.89;50.91;93861.00;6078534;23;20303;-92
2023/09/27 03:42:01;;;;;;;49.45;35.10;;;;;;;21.89;50.80;93858.25;6081192;23;20018;-93
2023/09/27 03:44:27;;;;;;;257.60;147.50;;;;;;;21.95;50.80;93864.44;6075306;23;20025;-91
2023/09/27 03:46:54;;;;;;;57.53;36.22;;;;;;;21.99;50.66;93855.88;6068871;23;20044;-91
2023/09/27 03:49:19;;;;;;;26.33;18.75;;;;;;;21.96;50.57;93865.94;6041483;23;20465;-91
2023/09/27 03:52:42;;;;;;;28.85;19.13;;;;;;;21.87;50.83;93867.03;6019943;23;20034;-92
2023/09/27 03:55:19;;;;;;;25.40;17.75;;;;;;;21.84;50.72;93867.38;5932330;24;20028;-95
2023/09/27 03:57:45;;;;;;;25.58;17.50;;;;;;;21.85;50.74;93869.59;5953638;24;20069;-92
2023/09/27 04:00:14;;;;;;;29.35;18.20;;;;;;;21.85;50.54;93866.09;5945587;24;20033;-91
2023/09/27 04:02:39;;;;;;;40.10;21.80;;;;;;;21.91;50.48;93866.75;5947436;24;20114;-91
2023/09/27 04:08:34;;;;;;;47.78;21.92;;;;;;;21.79;50.36;93859.94;5823355;24;20633;-92
2023/09/27 04:11:09;;;;;;;45.60;19.05;;;;;;;21.73;50.09;93862.00;5806796;24;20053;-93
2023/09/27 04:13:53;;;;;;;;;;;;;;;;;;;;;
2023/09/27 04:16:21;;;;;;;78.03;29.73;;;;;;;21.59;49.90;93861.22;5705769;24;20108;-92
2023/09/27 04:18:49;;;;;;;147.73;98.35;;;;;;;21.58;50.05;93861.72;5696128;25;20053;-93
2023/09/27 04:21:15;;;;;;;63.55;20.73;;;;;;;21.63;49.88;93860.91;5705255;25;20060;-91
2023/09/27 04:23:41;;;;;;;54.80;18.60;;;;;;;21.51;49.69;93866.56;5708285;25;20033;-91
2023/09/27 04:26:09;;;;;;;72.50;20.42;;;;;;;21.57;49.96;93872.00;5749913;24;20083;-92
2023/09/27 04:28:34;;;;;;;53.63;18.55;;;;;;;21.47;49.79;93860.59;5819535;24;20455;-92
2023/09/27 04:31:00;;;;;;;56.38;17.65;;;;;;;21.43;50.14;93873.19;5795187;24;20070;-91
2023/09/27 04:33:29;;;;;;;45.35;15.02;;;;;;;21.41;50.06;93873.69;5810127;24;20026;-93
2023/09/27 04:36:27;;;;;;;42.70;13.68;;;;;;;21.36;50.17;93885.50;5826063;24;20548;-93
2023/09/27 04:39:13;;;;;;;58.25;14.27;;;;;;;21.26;50.48;93876.13;5835401;24;20025;-93
2023/09/27 04:41:39;;;;;;;35.05;17.50;;;;;;;21.34;50.31;93879.03;5886107;24;20122;-91
2023/09/27 04:44:05;;;;;;;39.80;19.23;;;;;;;21.27;50.25;93882.34;5847214;24;20029;-89
2023/09/27 04:46:46;;;;;;;45.13;22.00;;;;;;;21.27;50.24;93891.34;5833372;24;20034;-93
2023/09/27 04:49:34;;;;;;;;;;;;;;;;;;;;;
2023/09/27 04:52:21;;;;;;;133.07;31.88;;;;;;;21.24;50.51;93888.88;5812323;24;20034;-92
2023/09/27 04:54:58;;;;;;;234.43;63.72;;;;;;;21.26;50.46;93889.88;5830415;24;20495;-95
2023/09/27 04:57:24;;;;;;;133.02;33.80;;;;;;;21.18;50.68;93892.44;5814114;24;20647;-90
2023/09/27 04:59:53;;;;;;;130.70;38.45;;;;;;;21.27;50.66;93898.84;5812996;24;20046;-90
2023/09/27 05:02:19;;;;;;;128.68;38.28;;;;;;;21.22;50.70;93902.44;5789156;24;20770;-89
2023/09/27 05:04:47;;;;;;;94.97;33.05;;;;;;;21.11;50.57;93906.75;5790844;24;20023;-92
2023/09/27 05:07:17;;;;;;;70.50;28.08;;;;;;;21.12;51.01;93907.50;5810401;24;20045;-92
2023/09/27 05:09:46;;;;;;;66.93;26.08;;;;;;;21.08;51.01;93913.28;5894052;24;20028;-90
2023/09/27 05:12:12;;;;;;;101.38;33.97;;;;;;;21.12;50.75;93919.25;5868840;24;20033;-91
2023/09/27 05:14:57;;;;;;;85.18;35.65;;;;;;;21.13;50.94;93922.75;5957705;23;20046;-92
2023/09/27 05:17:25;;;;;;;62.00;25.60;;;;;;;21.12;51.03;93916.50;5984576;23;20090;-93
2023/09/27 05:20:08;;;;;;;58.58;21.73;;;;;;;21.12;51.00;93921.25;6044430;23;20041;-92
2023/09/27 05:22:35;;;;;;;35.75;16.48;;;;;;;21.11;50.94;93917.00;6075927;23;20013;-92
2023/09/27 05:25:01;;;;;;;30.00;15.05;;;;;;;21.04;50.87;93912.81;6076033;23;20061;-91
2023/09/27 05:27:26;;;;;;;29.77;15.68;;;;;;;21.04;51.00;93920.31;6075741;23;20025;-91
2023/09/27 05:29:53;;;;;;;30.27;15.30;;;;;;;21.09;50.94;93922.28;6101626;23;20032;-89
2023/09/27 05:32:19;;;;;;;36.28;14.65;;;;;;;21.08;51.14;93938.03;6102424;23;20330;-91
2023/09/27 05:34:45;;;;;;;45.40;14.55;;;;;;;21.17;50.72;93929.44;6076471;23;20036;-93
2023/09/27 05:37:10;;;;;;;32.22;14.65;;;;;;;21.19;50.67;93940.69;6073875;23;20022;-90
2023/09/27 05:39:35;;;;;;;31.58;16.10;;;;;;;21.20;50.60;93936.69;6074481;23;20018;-90
2023/09/27 05:42:01;;;;;;;33.92;15.93;;;;;;;21.27;50.63;93940.09;6098500;23;20025;-92
2023/09/27 05:44:26;;;;;;;44.80;18.92;;;;;;;21.29;50.50;93946.59;6075152;23;20018;-93
2023/09/27 05:46:52;;;;;;;76.50;25.83;;;;;;;21.31;50.55;93938.56;6075624;23;20026;-94
2023/09/27 05:49:27;;;;;;;69.20;26.13;;;;;;;21.34;50.74;93937.53;6062838;23;20397;-94
2023/09/27 05:51:54;;;;;;;61.25;24.13;;;;;;;21.40;50.65;93938.22;6076140;23;20018;-92
2023/09/27 05:54:27;;;;;;;65.22;29.27;;;;;;;21.43;50.57;93928.94;6105804;23;20049;-93
2023/09/27 05:56:54;;;;;;;68.15;31.05;;;;;;;21.47;50.40;93932.13;6070397;23;20025;-94
2023/09/27 05:59:21;;;;;;;85.75;33.72;;;;;;;21.50;50.45;93928.34;6098148;23;20025;-93
2023/09/27 06:01:47;;;;;;;95.90;36.15;;;;;;;21.61;50.84;93926.72;6067099;23;20345;-91
2023/09/27 06:04:12;;;;;;;206.30;53.13;;;;;;;21.64;50.18;93936.69;6061034;23;20026;-92
2023/09/27 06:06:39;;;;;;;164.25;49.08;;;;;;;21.69;50.09;93935.84;6072901;23;20022;-91
2023/09/27 06:09:09;;;;;;;101.80;38.38;;;;;;;21.70;50.21;93935.34;6075616;23;20025;-93
2023/09/27 06:11:35;;;;;;;79.70;37.25;;;;;;;21.75;50.31;93936.53;6088316;23;20578;-92
2023/09/27 06:14:00;;;;;;;85.20;34.25;;;;;;;21.80;49.99;93932.97;6077828;23;20064;-93
2023/09/27 06:16:27;;;;;;;67.25;29.90;;;;;;;21.80;49.85;93935.72;6078333;23;20097;-94
2023/09/27 06:18:53;;;;;;;57.08;30.67;;;;;;;21.81;49.83;93942.72;6073666;23;20101;-91
2023/09/27 06:21:18;;;;;;;57.97;28.38;;;;;;;21.84;49.84;93941.69;6096345;23;20024;-90
2023/09/27 06:23:45;;;;;;;56.67;28.02;;;;;;;21.82;49.97;93941.44;6088246;23;20018;-92
2023/09/27 06:26:12;;;;;;;46.97;25.70;;;;;;;21.87;49.73;93938.59;6075263;23;20025;-92
2023/09/27 06:28:38;;;;;;;45.33;25.60;;;;;;;21.84;49.92;93934.16;6081135;23;20021;-92
2023/09/27 06:31:08;;;;;;;50.90;26.58;;;;;;;21.85;49.73;93943.16;6072798;23;20013;-93
2023/09/27 06:33:34;;;;;;;50.45;25.52;;;;;;;21.87;49.78;93941.34;6103848;23;20022;-93
2023/09/27 06:36:01;;;;;;;45.92;26.02;;;;;;;21.82;49.96;93949.72;6079514;23;20026;-92
2023/09/27 06:38:37;;;;;;;62.80;26.42;;;;;;;21.89;49.64;93943.59;6080310;23;20124;-93
2023/09/27 06:41:03;;;;;;;79.18;41.20;;;;;;;21.92;49.62;93950.81;6101097;23;20101;-92
2023/09/27 06:43:31;;;;;;;67.75;38.20;;;;;;;21.93;49.65;93952.31;6074068;23;20041;-92
2023/09/27 06:46:01;;;;;;;73.35;41.35;;;;;;;21.91;49.59;93957.59;6078434;23;20072;-93
2023/09/27 06:48:27;;;;;;;71.40;36.20;;;;;;;21.94;49.70;93962.06;6092431;23;20096;-94
2023/09/27 06:51:02;;;;;;;119.95;63.35;;;;;;;21.94;49.67;93961.31;6084194;23;20026;-92
2023/09/27 06:53:42;;;;;;;118.18;65.05;;;;;;;21.96;49.67;93956.03;6085686;23;20025;-94
2023/09/27 06:56:08;;;;;;;162.90;78.93;;;;;;;21.97;49.47;93957.50;6066058;23;20086;-91
2023/09/27 06:58:41;;;;;;;206.35;90.90;;;;;;;21.99;49.61;93960.50;6046830;23;20045;-92
2023/09/27 07:01:10;;;;;;;205.27;100.05;;;;;;;21.96;49.83;93973.28;6050147;23;20109;-93
2023/09/27 07:03:48;;;;;;;275.48;120.63;;;;;;;22.00;49.51;93975.75;6058301;23;20026;-94
2023/09/27 07:06:14;;;;;;;249.38;120.18;;;;;;;21.99;49.75;93969.50;6034936;23;20483;-94
2023/09/27 07:08:40;;;;;;;204.65;96.18;;;;;;;21.98;50.23;93964.50;6052617;23;20029;-93
2023/09/27 07:11:07;;;;;;;182.55;93.18;;;;;;;21.94;50.17;93967.56;6048478;23;20022;-93
2023/09/27 07:13:33;;;;;;;235.15;126.32;;;;;;;21.98;49.97;93970.00;6048309;23;20078;-93
2023/09/27 07:15:59;;;;;;;177.02;89.82;;;;;;;22.01;50.54;93974.50;6025229;23;20079;-93
2023/09/27 07:18:25;;;;;;;218.48;112.93;;;;;;;22.03;50.19;93972.72;6041685;23;20026;-92
2023/09/27 07:20:51;;;;;;;212.65;108.70;;;;;;;22.05;49.96;93974.97;6047814;23;20018;-92
2023/09/27 07:23:17;;;;;;;246.35;123.90;;;;;;;22.05;50.12;93972.97;6040626;23;20025;-93
2023/09/27 07:25:44;;;;;;;240.30;124.03;;;;;;;22.07;49.96;93972.44;6007006;23;20022;-91
2023/09/27 07:28:10;;;;;;;252.02;125.70;;;;;;;22.08;50.04;93971.16;6099575;23;20022;-93
2023/09/27 07:30:35;;;;;;;230.80;119.32;;;;;;;22.11;50.01;93979.09;6083315;23;20022;-94
2023/09/27 07:33:06;;;;;;;230.27;122.15;;;;;;;22.11;49.63;93986.63;6066110;23;20030;-91
2023/09/27 07:35:34;;;;;;;229.73;121.43;;;;;;;22.12;49.90;93985.38;6025125;23;20018;-94
2023/09/27 07:38:00;;;;;;;228.93;120.20;;;;;;;22.11;50.05;93981.88;6059989;23;20525;-93
2023/09/27 07:40:26;;;;;;;230.82;116.85;;;;;;;22.14;50.06;93991.09;6052320;23;20017;-91
2023/09/27 07:42:51;;;;;;;228.32;117.03;;;;;;;22.14;49.96;93985.59;6054516;23;20338;-92
2023/09/27 07:45:26;;;;;;;210.60;113.53;;;;;;;22.14;50.12;93993.84;6057546;23;20022;-93
2023/09/27 07:47:52;;;;;;;227.85;115.68;;;;;;;22.16;49.93;93996.81;6054121;23;20085;-92
2023/09/27 07:50:19;;;;;;;219.82;105.00;;;;;;;22.18;49.85;94002.56;6078864;23;20026;-92
2023/09/27 07:52:45;;;;;;;243.45;117.95;;;;;;;22.16;49.95;93994.81;6078377;23;20018;-91
2023/09/27 07:55:21;;;;;;;217.88;105.53;;;;;;;22.14;50.09;93994.59;6054480;23;20033;-93
2023/09/27 07:57:47;;;;;;;194.88;97.13;;;;;;;22.18;50.26;93992.28;6055244;23;20028;-92
2023/09/27 08:00:16;;;;;;;215.35;95.97;;;;;;;22.19;50.49;94001.28;6051557;23;20385;-91
2023/09/27 08:02:43;;;;;;;207.98;107.72;;;;;;;22.23;50.29;94004.50;6054797;23;20659;-91
2023/09/27 08:05:13;;;;;;;202.43;111.35;;;;;;;22.29;50.33;94010.69;6051298;23;20026;-93
2023/09/27 08:07:39;;;;;;;;;;;;;;;22.26;50.13;94003.47;6053198;23;20084;-90
2023/09/27 08:10:05;;;;;;;230.48;114.97;;;;;;;22.25;50.01;93999.22;6075106;23;19917;-91
2023/09/27 08:12:32;;;;;;;218.02;113.28;;;;;;;22.27;50.05;93998.69;6056183;23;20025;-92
2023/09/27 08:15:00;;;;;;;211.77;114.63;;;;;;;22.26;50.17;94003.47;6055043;23;20020;-92
2023/09/27 08:17:26;;;;;;;231.43;126.03;;;;;;;22.27;50.07;93993.94;6051905;23;20018;-93
2023/09/27 08:19:51;;;;;;;240.32;135.90;;;;;;;22.32;50.10;93997.84;6043871;23;20050;-94
2023/09/27 08:22:20;;;;;;;258.85;139.48;;;;;;;22.33;50.24;94005.59;6043283;23;20014;-94
2023/09/27 08:24:47;;;;;;;332.17;166.82;;;;;;;22.38;49.96;94010.28;6090360;23;20010;-96
2023/09/27 08:27:13;;;;;;;321.33;157.65;;;;;;;22.37;50.25;94008.06;6047099;23;20010;-94
2023/09/27 08:29:39;;;;;;;332.98;171.43;;;;;;;22.35;50.22;94013.34;6086165;23;20477;-93
2023/09/27 08:32:20;;;;;;;318.50;175.18;;;;;;;22.35;50.21;94014.09;6093175;23;20030;-93
2023/09/27 08:34:49;;;;;;;342.88;193.27;;;;;;;22.35;49.98;94013.34;6045015;23;20023;-94
2023/09/27 08:37:18;;;;;;;340.27;192.32;;;;;;;22.33;50.15;94013.84;6073484;23;20018;-95
2023/09/27 08:39:56;;;;;;;355.17;195.25;;;;;;;22.35;50.03;94013.34;6072902;23;20011;-94
2023/09/27 08:42:50;;;;;;;360.67;190.07;;;;;;;22.35;50.12;94008.56;6058096;23;20490;-93
2023/09/27 08:45:19;;;;;;;338.48;189.52;;;;;;;22.41;50.23;94003.75;5965708;23;20019;-95
2023/09/27 08:47:52;;;;;;;380.10;200.77;;;;;;;22.41;50.06;94020.28;5991247;23;20040;-93
2023/09/27 08:50:18;;;;;;;333.63;178.95;;;;;;;22.42;50.36;94018.25;5987061;23;20026;-94
2023/09/27 08:52:51;;;;;;;401.30;187.90;;;;;;;22.41;50.42;94016.78;5990352;23;20027;-94
2023/09/27 08:55:21;;;;;;;508.63;289.42;;;;;;;22.48;50.27;94016.19;5941701;23;20358;-94
2023/09/27 08:57:48;;;;;;;434.42;237.10;;;;;;;22.47;50.71;94015.44;5939219;23;20058;-93
2023/09/27 09:00:22;;;;;;;450.23;236.57;;;;;;;22.47;50.21;94017.44;5966012;23;20082;-94
2023/09/27 09:02:59;;;;;;;395.80;208.68;;;;;;;22.42;50.45;94027.28;5947272;24;20028;-94
2023/09/27 09:05:30;;;;;;;341.48;182.63;;;;;;;22.39;50.67;94027.56;5980898;23;20107;-94
2023/09/27 09:07:57;;;;;;;305.10;154.65;;;;;;;22.36;51.41;94014.84;5962406;23;20028;-94
2023/09/27 09:10:24;;;;;;;313.60;158.80;;;;;;;22.34;51.49;94022.88;5988172;23;20030;-94
2023/09/27 09:12:50;;;;;;;279.95;148.85;;;;;;;22.35;51.52;94024.34;5967227;23;20506;-94
2023/09/27 09:15:40;;;;;;;270.90;146.02;;;;;;;22.31;51.67;94016.38;5991832;23;20023;-93
2023/09/27 09:18:06;;;;;;;278.27;151.35;;;;;;;22.36;51.70;94021.09;5948166;24;20057;-93
2023/09/27 09:20:49;;;;;;;294.38;156.45;;;;;;;22.38;51.49;94028.81;5960671;24;20480;-93
2023/09/27 09:23:31;;;;;;;261.20;141.55;;;;;;;22.36;51.58;94034.13;5976081;23;20034;-93
2023/09/27 09:25:59;;;;;;;310.25;163.52;;;;;;;22.37;51.53;94035.59;5941417;23;20020;-92
2023/09/27 09:28:25;;;;;;;348.92;159.15;;;;;;;22.42;51.34;94032.78;5952882;23;20019;-90
2023/09/27 09:30:51;;;;;;;320.25;154.15;;;;;;;22.42;51.50;94037.53;5962122;23;20036;-92
2023/09/27 09:33:22;;;;;;;321.58;156.65;;;;;;;22.44;51.34;94037.78;5988224;23;20104;-93
2023/09/27 09:35:51;;;;;;;297.90;137.95;;;;;;;22.47;51.20;94025.72;5965657;23;20019;-95
2023/09/27 09:38:25;;;;;;;301.10;148.43;;;;;;;22.42;51.17;94029.28;5939403;23;20072;-94
2023/09/27 09:40:59;;;;;;;308.02;147.52;;;;;;;22.43;50.98;94025.25;5988976;23;20200;-94
2023/09/27 09:43:38;;;;;;;280.25;135.60;;;;;;;22.43;51.52;94026.00;5916840;23;20017;-94
2023/09/27 09:49:02;;;;;;;282.80;143.77;;;;;;;22.46;51.07;94024.97;5983560;23;20016;-93
2023/09/27 10:04:42;;;;;;;358.30;183.02;;;;;;;22.42;52.25;94018.25;6113275;23;20026;-93
2023/09/27 10:09:43;;;;;;;286.80;155.30;;;;;;;22.39;53.94;94011.78;6152064;23;20022;-94
2023/09/27 10:22:18;;;;;;;;;;;;;;;;;;;;;
2023/09/27 10:25:43;;;;;;;88.75;47.70;;;;;;;22.26;55.36;94017.22;5859786;24;20085;-95
2023/09/27 10:28:15;;;;;;;98.97;57.72;;;;;;;22.27;55.70;94012.47;5783406;24;20064;-93
2023/09/27 10:30:40;;;;;;;107.57;60.17;;;;;;;22.31;55.40;94008.13;5739311;24;20487;-93
2023/09/27 10:33:15;;;;;;;50.13;29.23;;;;;;;22.26;55.71;94002.72;5790150;24;20094;-94
2023/09/27 10:36:03;;;;;;;70.88;46.08;;;;;;;22.26;55.60;94003.47;5802825;24;20057;-93
2023/09/27 10:38:49;;;;;;;65.15;37.13;;;;;;;22.23;55.66;94002.50;5798573;24;20032;-94
2023/09/27 10:41:38;;;;;;;61.50;40.00;;;;;;;22.28;55.92;93995.41;5788704;24;20111;-93
2023/09/27 10:44:13;;;;;;;59.80;35.80;;;;;;;22.28;55.69;94003.69;5810961;24;20031;-93
2023/09/27 10:46:48;;;;;;;30.98;21.48;;;;;;;22.30;55.73;94000.41;5750530;24;20024;-93
2023/09/27 10:49:20;;;;;;;32.25;23.17;;;;;;;22.32;55.97;93993.09;5803282;24;20024;-92
2023/09/27 10:51:57;;;;;;;54.20;33.65;;;;;;;22.27;55.99;93990.44;5787215;24;20023;-92
2023/09/27 10:54:35;;;;;;;36.65;24.48;;;;;;;22.27;57.26;93977.41;5784274;24;20054;-92
2023/09/27 10:57:03;;;;;;;84.72;39.42;;;;;;;22.22;56.58;93980.97;5910217;24;20025;-93
2023/09/27 10:59:29;;;;;;;73.47;35.40;;;;;;;22.32;56.92;93978.56;5951697;23;20030;-93
2023/09/27 11:01:56;;;;;;;39.17;23.10;;;;;;;22.23;57.68;93985.22;5996539;23;20027;-91
2023/09/27 11:04:25;;;;;;;37.03;20.38;;;;;;;22.23;57.73;93985.97;6021258;23;20022;-92
2023/09/27 11:06:51;;;;;;;56.83;28.67;;;;;;;22.20;57.08;93983.50;6084629;23;20029;-93
2023/09/27 11:09:23;;;;;;;62.40;30.60;;;;;;;22.10;57.34;93985.88;6108887;23;20029;-93
2023/09/27 11:11:49;;;;;;;35.25;18.58;;;;;;;22.03;57.73;93983.00;6085562;23;20018;-92
2023/09/27 11:14:33;;;;;;;41.25;23.95;;;;;;;21.98;57.67;93979.03;6081618;23;20029;-91
2023/09/27 11:17:15;;;;;;;61.05;27.25;;;;;;;21.98;57.37;93975.53;6079591;23;20018;-92
2023/09/27 11:19:40;;;;;;;31.13;18.33;;;;;;;22.03;57.57;93969.22;6104925;23;20021;-92
2023/09/27 11:22:06;;;;;;;59.28;30.17;;;;;;;22.04;57.21;93971.47;6105789;23;20018;-92
2023/09/27 11:24:39;;;;;;;45.53;24.40;;;;;;;22.05;57.23;93967.44;6106587;23;20018;-93
2023/09/27 11:27:08;;;;;;;45.50;19.30;;;;;;;22.17;57.66;93973.53;6083628;23;20018;-91
2023/09/27 11:29:35;;;;;;;90.22;33.75;;;;;;;22.10;57.16;93972.13;6107664;23;20345;-91
2023/09/27 11:32:00;;;;;;;40.42;23.55;;;;;;;22.18;57.31;93966.75;6096264;23;20022;-93
2023/09/27 11:34:27;;;;;;;36.17;20.35;;;;;;;22.20;57.14;93961.47;6081846;23;20040;-93
2023/09/27 11:36:53;;;;;;;38.40;21.10;;;;;;;22.20;57.11;93951.22;6084053;23;20044;-92
2023/09/27 11:39:48;;;;;;;63.03;30.80;;;;;;;22.21;56.69;93938.19;6082354;23;20093;-92
2023/09/27 11:42:13;;;;;;;61.80;32.35;;;;;;;22.20;56.65;93934.69;6107779;23;20028;-93
2023/09/27 11:44:39;;;;;;;51.90;23.13;;;;;;;22.22;56.30;93945.19;6086803;23;20044;-92
2023/09/27 11:47:08;;;;;;;63.40;31.45;;;;;;;22.20;56.33;93942.94;6085444;23;20029;-92
2023/09/27 11:49:34;;;;;;;34.17;20.05;;;;;;;22.27;56.27;93938.84;6085293;23;20013;-92
2023/09/27 11:52:02;;;;;;;48.10;30.02;;;;;;;22.24;55.80;93939.91;6081556;23;20507;-92
2023/09/27 11:54:29;;;;;;;27.08;14.55;;;;;;;22.25;54.49;93930.38;6064042;23;20093;-94
2023/09/27 11:56:58;;;;;;;43.90;25.08;;;;;;;22.25;54.95;93932.38;6085593;23;20021;-94